Best Dividend Stocks - Canada

Screen the best dividend stocks for Canada

# Ticker Company Dividend Yield TTM Dividend Yield Streaks Last Quote Quote Date
1 TZS.TO Trez Capital Senior Mortgage Investment Corporation 100.51 % 100.51 % 1 1.97 2021-04-09
2 ALC.TO Algoma Central Corporation 34.12 % 34.41 % 27 17.35 2021-04-09
3 MIC.TO Genworth MI Canada Inc 15.64 % 3.73 % 12 43.48 2021-04-05
4 ENS.TO E Split Corp 11.52 % 11.52 % 4 13.54 2021-04-09
5 DFN.TO Dividend 15 Split Corp 10.23 % 11.51 % 18 7.82 2021-04-09
6 CHE-UN.TO Chemtrade Logistics Income Fund 9.89 % 8.47 % 21 7.08 2021-04-09
7 GDV.TO Global Dividend Growth Split Corp 9.84 % 9.84 % 4 12.20 2021-04-09
8 CEE.TO Centamin plc 9.42 % 9.42 % 7 1.91 2021-04-09
9 SBC.TO Brompton Split Banc Corp 9.13 % 9.13 % 17 13.14 2021-04-09
10 DS.TO Dividend Select 15 Corp 9.07 % 8.82 % 12 7.10 2021-04-09
11 SOT-UN.TO Slate Office REIT 8.96 % 8.96 % 9 4.46 2021-04-09
12 CVG.TO Clairvest Group Inc 8.82 % 8.82 % 31 63.00 2021-04-09
13 INO-UN.TO Inovalis Real Estate Investment Trust 8.46 % 7.76 % 9 9.75 2021-04-09
14 TNT-UN.TO True North Commercial Real Estate Investment Trust 8.40 % 8.40 % 9 7.07 2021-04-09
15 KPT.TO KP Tissue Inc 8.39 % 6.71 % 8 10.73 2021-04-09
16 BGI-UN.TO Brookfield Global Infrastructure Securities Income Fund 8.37 % 6.28 % 8 7.17 2021-04-09
17 BTB-UN.TO BTB Real Estate Investment Trust 8.33 % 7.60 % 13 4.08 2021-04-09
18 LIF.TO Labrador Iron Ore Royalty Corporation 8.33 % 7.37 % 25 36.63 2021-04-09
19 AIM-PC.TO Aimia Inc 8.26 % 6.19 % 2 18.20 2021-04-09
20 DIV.TO Diversified Royalty Corp 8.24 % 7.97 % 8 2.56 2021-04-09
21 BIR-PA.TO Birchcliff Energy Ltd 8.21 % 6.16 % 9 25.50 2021-04-09
22 MRT-UN.TO Morguard Real Estate Investment Trust 8.21 % 3.73 % 21 5.36 2021-04-09
23 FAP.TO Aberdeen Asia-Pacific Income Investment Company Limited 8.20 % 8.20 % 26 3.02 2021-04-09
24 BRE.TO Bridgemarq Real Estate Services Inc 8.14 % 8.15 % 19 16.64 2021-04-09
25 MKP.TO MCAN Mortgage Corporation 8.02 % 6.01 % 29 16.96 2021-04-09
26 FSZ.TO Fiera Capital Corporation 7.99 % 5.99 % 31 10.51 2021-04-09
27 PIC-A.TO Premium Income Corporation 7.99 % 6.75 % 24 6.30 2021-04-09
28 TF.TO Timbercreek Financial Corporation 7.88 % 7.89 % 6 8.81 2021-04-09
29 CNU.TO CNOOC Limited 7.62 % 7.62 % 7 110.00 2021-04-09
30 AIM-PA.TO Aimia Inc 7.38 % 5.62 % 2 16.01 2021-04-09
31 KEY.TO Keyera Corp 7.35 % 7.35 % 19 26.11 2021-04-09
32 XMF-PB.TO M Split Corp CLASS I PREF SHAR 7.23 % 7.23 % 6 5.19 2021-04-09
33 SII.TO Sprott Inc 7.20 % 7.14 % 13 50.85 2021-04-09
34 REI-UN.TO RioCan Real Estate Investment Trust 7.13 % 6.54 % 26 20.19 2021-04-09
35 PAYF.TO Purpose Enhanced Premium Yield Fund 7.12 % 7.12 % 3 19.90 2021-04-09
36 BIR-PC.TO Birchcliff Energy Ltd 7.03 % 5.27 % 7 24.91 2021-04-09
37 ENB.TO Enbridge Inc 7.01 % 5.26 % 30 46.22 2021-04-09
38 PLZ-UN.TO Plaza Retail REIT 6.98 % 6.98 % 20 4.01 2021-04-09
39 PPL.TO Pembina Pipeline Corporation 6.89 % 6.89 % 24 36.58 2021-04-09
40 ENB-PN.TO ENB-PN 6.85 % 5.14 % 9 18.57 2021-04-09
41 AI.TO Atrium Mortgage Investment Corporation 6.79 % 6.79 % 10 13.26 2021-04-09
42 APR-UN.TO Automotive Properties Real Estate Investment Trust 6.78 % 6.78 % 7 11.85 2021-04-09
43 DC-PB.TO Dundee Corporation 6.77 % 5.08 % 12 19.51 2021-04-09
44 ENB-PF.TO ENB-PF 6.75 % 5.06 % 9 17.37 2021-04-09
45 FC.TO Firm Capital Mortgage Investment Corporation 6.72 % 6.72 % 23 14.04 2021-04-09
46 ENB-PD.TO ENB-PD 6.71 % 5.03 % 9 16.62 2021-04-09
47 ENB-PH.TO ENB-PH 6.69 % 5.02 % 9 16.36 2021-04-09
48 SRU-UN.TO SmartCentres Real Estate Investment Trust 6.66 % 6.66 % 20 27.77 2021-04-09
49 VET.TO Vermilion Energy Inc 6.62 % 0.00 % 18 8.69 2021-04-09
50 AZP-PB.TO AZP-PB 6.57 % 4.92 % 11 21.85 2021-04-09
51 PZA.TO Pizza Pizza Royalty Corp 6.51 % 6.04 % 17 10.35 2021-04-09
52 ECN-PA.TO ECN CAPITAL CORP PREF SERIES A 6.51 % 4.88 % 4 24.96 2021-04-09
53 TA-PH.TO TA-PH 6.50 % 4.87 % 9 19.99 2021-04-09
54 CIQ-UN.TO Canadian High Income Equity Fund 6.49 % 6.11 % 12 7.86 2021-04-09
55 POW.TO Power Corporation of Canada 6.48 % 3.96 % 31 33.93 2021-04-09
56 RSI.TO Rogers Sugar Inc 6.46 % 4.85 % 23 5.57 2021-04-09
57 ENB-PP.TO Enbridge Inc 6.37 % 6.37 % 10 17.18 2021-04-09
58 PFB.TO PFB Corporation 6.37 % 5.95 % 24 21.50 2021-04-09
59 SIA.TO Sienna Senior Living Inc 6.34 % 6.34 % 12 14.77 2021-04-09
60 CPX-PC.TO CPX-PC 6.27 % 4.70 % 8 21.75 2021-04-09
61 BK.TO Canadian Banc Corp 6.26 % 6.87 % 17 10.97 2021-04-09
62 CF-PC.TO Canaccord Genuity Group Inc 6.24 % 4.68 % 9 20.00 2021-04-09
63 CPX-PE.TO CPX-PE 6.23 % 4.67 % 8 21.01 2021-04-09
64 AX-PE.TO AX-PE 6.23 % 4.67 % 8 21.95 2021-04-09
65 HR-UN.TO H&R Real Estate Investment Trust 6.22 % 5.06 % 23 14.78 2021-04-09
66 LFE-PB.TO Canadian Life Companies Split Corp 6.22 % 6.22 % 10 10.45 2021-04-09
67 GEI.TO Gibson Energy Inc 6.21 % 4.66 % 10 21.91 2021-04-09
68 FEC.TO Frontera Energy Corporation 6.18 % 0.00 % 2 6.63 2021-04-09
69 TXT-PA.TO TXT-PA 6.18 % 6.18 % 14 12.65 2021-04-09
70 CF-PA.TO Canaccord Genuity Group Inc 6.11 % 4.58 % 10 15.90 2021-04-09
71 AX-PA.TO AX-PA 6.10 % 4.58 % 9 23.20 2021-04-09
72 OLY.TO Olympia Financial Group Inc 6.10 % 6.10 % 16 45.25 2021-04-09
73 NWH-UN.TO NorthWest Healthcare Properties Real Estate Investment Trust 6.08 % 6.08 % 12 13.16 2021-04-09
74 TA-PJ.TO TransAlta Corporation 6.00 % 4.50 % 7 20.80 2021-04-09
75 ENB-PT.TO ENB-PT 5.99 % 5.99 % 9 17.00 2021-04-09
76 CUF-UN.TO Cominar Real Estate Investment Trust 5.93 % 4.99 % 23 9.61 2021-04-09
77 BCE-PC.TO BCE Inc 5.89 % 4.42 % 13 18.60 2021-04-09
78 YCM-PA.TO Commerce Split Corp Class I Pre 5.86 % 5.86 % 4 5.12 2021-04-09
79 EFN-PE.TO Element Financial Corporation PREF SER 5.85 % 4.39 % 7 25.24 2021-04-09
80 EIF.TO Exchange Income Corporation 5.84 % 5.84 % 18 39.04 2021-04-09
81 TA-PF.TO TA-PF 5.82 % 4.36 % 9 17.31 2021-04-09
82 ADN.TO Acadian Timber Corp 5.80 % 4.35 % 15 19.99 2021-04-09
83 INE-PC.TO INE-PC 5.74 % 4.30 % 8 25.05 2021-04-09
84 IGM.TO IGM Financial Inc 5.73 % 4.29 % 31 39.33 2021-04-09
85 PWF-PO.TO PWF-PO 5.70 % 4.27 % 12 25.44 2021-04-09
86 CWX.TO CanWel Building Materials Group Ltd 5.64 % 4.12 % 16 9.22 2021-04-09
87 GWO-PM.TO GWO-PM 5.62 % 4.22 % 11 25.80 2021-04-09
88 NPI-PC.TO Northland Power Inc PREF SER 5.61 % 2.80 % 3 22.65 2021-04-09
89 FFH-PC.TO Fairfax Financial Holdings Limited 5.58 % 4.19 % 11 21.09 2021-04-09
90 RUS.TO Russel Metals Inc 5.58 % 4.18 % 22 27.26 2021-04-09
91 FTS-PG.TO FTS-PG 5.57 % 4.18 % 13 19.71 2021-04-09
92 CRR-UN.TO Crombie Real Estate Investment Trust 5.57 % 5.57 % 16 15.99 2021-04-09
93 DF-PA.TO DF-PA 5.56 % 5.56 % 14 10.34 2021-04-09
94 YCM-PB.TO Commerce Split Corp Class II PR 5.56 % 6.18 % 8 5.06 2021-04-09
95 AZP-PA.TO AZP-PA 5.55 % 4.17 % 13 21.83 2021-04-09
96 GWO-PL.TO GWO-PL 5.53 % 4.15 % 11 25.53 2021-04-09
97 TRP.TO TC Energy Corporation 5.52 % 4.14 % 31 58.68 2021-04-09
98 INE-PA.TO Innergex Renewable Energy Inc 5.48 % 4.11 % 9 16.45 2021-04-09
99 ELF-PH.TO E-L Financial Corporation Limited 5.44 % 4.08 % 9 25.28 2021-04-09
100 RY-PQ.TO Royal Bank of Canada 5.43 % 4.07 % 5 25.32 2021-04-09
# Ticker Company Dividend Yield TTM Dividend Yield Streaks Last Quote Quote Date